• pl
  • eng

Awiacja
TAF FC 01:00 01.01.1970

TAF EPLB 182330Z 1900/1909 32006KT 9999 SCT040
TEMPO 1900/1906 3000 SHRA SCT009 BKN025CB
PROB40 TEMPO 1900/1906 BKN004=

TAF EPZG 182330Z 1900/1909 26004KT 9999 BKN028
PROB30 TEMPO 1900/1909 3500 SHRA BKN008 BKN014CB=
Awiacja.imgw.pl jest pogodowym serwisem informacyjnym
Instytutu Meteorologii i Gospodarki Wodnej Państwowego Instytutu Badawczego.
Copyright IMGW PIB 2009-2011© Wszelkie prawa zastrzeżone.